sensor_id;sensor_type;location;lat;lon;timestamp;pressure;altitude;pressure_sealevel;temperature;humidity
77019;BME280;66044;53.142;17.962;2023-04-24T00:00:51;100030.83;;;14.27;66.81
77019;BME280;66044;53.142;17.962;2023-04-24T00:03:25;100027.31;;;14.25;66.73
77019;BME280;66044;53.142;17.962;2023-04-24T00:05:52;100027.80;;;14.23;66.79
77019;BME280;66044;53.142;17.962;2023-04-24T00:08:18;100027.33;;;14.21;66.94
77019;BME280;66044;53.142;17.962;2023-04-24T00:10:45;100027.01;;;14.19;66.90
77019;BME280;66044;53.142;17.962;2023-04-24T00:13:11;100023.30;;;14.19;66.98
77019;BME280;66044;53.142;17.962;2023-04-24T00:15:38;100019.48;;;14.18;67.09
77019;BME280;66044;53.142;17.962;2023-04-24T00:18:04;100017.20;;;14.14;66.97
77019;BME280;66044;53.142;17.962;2023-04-24T00:20:31;100015.81;;;14.09;67.07
77019;BME280;66044;53.142;17.962;2023-04-24T00:23:01;100012.95;;;14.03;67.18
77019;BME280;66044;53.142;17.962;2023-04-24T00:25:28;100006.02;;;13.99;67.24
77019;BME280;66044;53.142;17.962;2023-04-24T00:27:54;100005.60;;;13.95;67.50
77019;BME280;66044;53.142;17.962;2023-04-24T00:30:21;100007.96;;;13.93;67.61
77019;BME280;66044;53.142;17.962;2023-04-24T00:32:47;100006.48;;;13.93;67.59
77019;BME280;66044;53.142;17.962;2023-04-24T00:35:14;100003.59;;;13.90;67.85
77019;BME280;66044;53.142;17.962;2023-04-24T00:37:41;99998.70;;;13.88;67.94
77019;BME280;66044;53.142;17.962;2023-04-24T00:40:08;99994.14;;;13.87;67.84
77019;BME280;66044;53.142;17.962;2023-04-24T00:42:35;99990.60;;;13.88;68.03
77019;BME280;66044;53.142;17.962;2023-04-24T00:45:02;99983.90;;;13.89;68.10
77019;BME280;66044;53.142;17.962;2023-04-24T00:47:29;99979.91;;;13.90;68.28
77019;BME280;66044;53.142;17.962;2023-04-24T00:49:56;99983.55;;;13.91;68.01
77019;BME280;66044;53.142;17.962;2023-04-24T00:52:22;99986.94;;;13.91;68.14
77019;BME280;66044;53.142;17.962;2023-04-24T00:54:50;99985.94;;;13.92;67.99
77019;BME280;66044;53.142;17.962;2023-04-24T00:57:17;99986.39;;;13.91;68.13
77019;BME280;66044;53.142;17.962;2023-04-24T00:59:43;99987.87;;;13.90;68.02
77019;BME280;66044;53.142;17.962;2023-04-24T01:02:11;99984.08;;;13.90;68.15
77019;BME280;66044;53.142;17.962;2023-04-24T01:04:38;99984.70;;;13.90;68.20
77019;BME280;66044;53.142;17.962;2023-04-24T01:07:05;99978.84;;;13.92;68.19
77019;BME280;66044;53.142;17.962;2023-04-24T01:09:40;99980.64;;;13.92;68.46
77019;BME280;66044;53.142;17.962;2023-04-24T01:12:07;99982.04;;;13.93;68.30
77019;BME280;66044;53.142;17.962;2023-04-24T01:14:34;99977.65;;;13.94;68.24
77019;BME280;66044;53.142;17.962;2023-04-24T01:17:00;99979.12;;;13.94;68.23
77019;BME280;66044;53.142;17.962;2023-04-24T01:19:27;99976.20;;;13.95;68.42
77019;BME280;66044;53.142;17.962;2023-04-24T01:21:58;99975.81;;;13.95;68.45
77019;BME280;66044;53.142;17.962;2023-04-24T01:24:25;99968.71;;;13.94;68.49
77019;BME280;66044;53.142;17.962;2023-04-24T01:26:52;99964.74;;;13.93;68.59
77019;BME280;66044;53.142;17.962;2023-04-24T01:29:18;99960.87;;;13.91;68.59
77019;BME280;66044;53.142;17.962;2023-04-24T01:31:45;99962.61;;;13.88;68.73
77019;BME280;66044;53.142;17.962;2023-04-24T01:34:12;99965.72;;;13.85;68.79
77019;BME280;66044;53.142;17.962;2023-04-24T01:36:39;99965.69;;;13.81;68.73
77019;BME280;66044;53.142;17.962;2023-04-24T01:39:05;99964.17;;;13.80;68.74
77019;BME280;66044;53.142;17.962;2023-04-24T01:41:32;99965.69;;;13.78;68.92
77019;BME280;66044;53.142;17.962;2023-04-24T01:43:59;99965.20;;;13.76;68.98
77019;BME280;66044;53.142;17.962;2023-04-24T01:46:25;99961.34;;;13.74;69.07
77019;BME280;66044;53.142;17.962;2023-04-24T01:48:52;99957.80;;;13.71;69.17
77019;BME280;66044;53.142;17.962;2023-04-24T01:51:19;99957.92;;;13.67;69.33
77019;BME280;66044;53.142;17.962;2023-04-24T01:53:45;99958.48;;;13.64;69.36
77019;BME280;66044;53.142;17.962;2023-04-24T01:56:12;99959.98;;;13.62;69.42
77019;BME280;66044;53.142;17.962;2023-04-24T01:58:38;99958.09;;;13.59;69.57
77019;BME280;66044;53.142;17.962;2023-04-24T02:01:06;99958.95;;;13.54;69.36
77019;BME280;66044;53.142;17.962;2023-04-24T02:03:32;99960.98;;;13.51;69.56
77019;BME280;66044;53.142;17.962;2023-04-24T02:05:59;99960.19;;;13.49;69.66
77019;BME280;66044;53.142;17.962;2023-04-24T02:08:25;99955.92;;;13.48;69.65
77019;BME280;66044;53.142;17.962;2023-04-24T02:10:52;99953.94;;;13.49;69.90
77019;BME280;66044;53.142;17.962;2023-04-24T02:13:18;99953.86;;;13.49;69.92
77019;BME280;66044;53.142;17.962;2023-04-24T02:15:45;99951.48;;;13.50;69.71
77019;BME280;66044;53.142;17.962;2023-04-24T02:18:11;99950.89;;;13.51;69.80
77019;BME280;66044;53.142;17.962;2023-04-24T02:20:38;99945.44;;;13.53;70.01
77019;BME280;66044;53.142;17.962;2023-04-24T02:23:05;99937.67;;;13.56;69.89
77019;BME280;66044;53.142;17.962;2023-04-24T02:25:33;99934.65;;;13.58;69.92
77019;BME280;66044;53.142;17.962;2023-04-24T02:27:59;99932.89;;;13.59;69.98
77019;BME280;66044;53.142;17.962;2023-04-24T02:30:26;99932.59;;;13.61;70.04
77019;BME280;66044;53.142;17.962;2023-04-24T02:32:52;99936.31;;;13.62;69.96
77019;BME280;66044;53.142;17.962;2023-04-24T02:35:18;99938.86;;;13.63;69.86
77019;BME280;66044;53.142;17.962;2023-04-24T02:37:45;99936.86;;;13.63;69.81
77019;BME280;66044;53.142;17.962;2023-04-24T02:40:12;99933.18;;;13.64;69.88
77019;BME280;66044;53.142;17.962;2023-04-24T02:42:38;99927.11;;;13.65;69.87
77019;BME280;66044;53.142;17.962;2023-04-24T02:45:05;99928.06;;;13.67;69.91
77019;BME280;66044;53.142;17.962;2023-04-24T02:47:31;99917.59;;;13.68;70.18
77019;BME280;66044;53.142;17.962;2023-04-24T02:49:58;99913.35;;;13.68;70.19
77019;BME280;66044;53.142;17.962;2023-04-24T02:52:24;99909.86;;;13.66;70.08
77019;BME280;66044;53.142;17.962;2023-04-24T02:54:51;99912.68;;;13.65;70.02
77019;BME280;66044;53.142;17.962;2023-04-24T02:57:17;99914.84;;;13.65;70.05
77019;BME280;66044;53.142;17.962;2023-04-24T02:59:44;99914.23;;;13.65;70.09
77019;BME280;66044;53.142;17.962;2023-04-24T03:02:10;99918.84;;;13.65;70.15
77019;BME280;66044;53.142;17.962;2023-04-24T03:04:36;99924.11;;;13.66;70.22
77019;BME280;66044;53.142;17.962;2023-04-24T03:07:03;99923.98;;;13.67;70.15
77019;BME280;66044;53.142;17.962;2023-04-24T03:09:30;99925.45;;;13.67;70.22
77019;BME280;66044;53.142;17.962;2023-04-24T03:11:57;99924.38;;;13.69;69.96
77019;BME280;66044;53.142;17.962;2023-04-24T03:14:24;99923.54;;;13.70;70.16
77019;BME280;66044;53.142;17.962;2023-04-24T03:16:51;99924.70;;;13.70;70.26
77019;BME280;66044;53.142;17.962;2023-04-24T03:19:17;99927.76;;;13.72;70.16
77019;BME280;66044;53.142;17.962;2023-04-24T03:21:44;99931.63;;;13.74;70.09
77019;BME280;66044;53.142;17.962;2023-04-24T03:24:10;99938.52;;;13.75;70.17
77019;BME280;66044;53.142;17.962;2023-04-24T03:26:36;99930.88;;;13.74;70.19
77019;BME280;66044;53.142;17.962;2023-04-24T03:29:03;99933.27;;;13.74;70.29
77019;BME280;66044;53.142;17.962;2023-04-24T03:31:29;99936.73;;;13.75;70.24
77019;BME280;66044;53.142;17.962;2023-04-24T03:33:56;99936.59;;;13.76;70.26
77019;BME280;66044;53.142;17.962;2023-04-24T03:36:22;99938.59;;;13.76;70.28
77019;BME280;66044;53.142;17.962;2023-04-24T03:38:49;99942.94;;;13.78;70.42
77019;BME280;66044;53.142;17.962;2023-04-24T03:41:15;99941.30;;;13.77;70.36
77019;BME280;66044;53.142;17.962;2023-04-24T03:43:41;99941.04;;;13.74;70.32
77019;BME280;66044;53.142;17.962;2023-04-24T03:46:08;99941.12;;;13.69;70.18
77019;BME280;66044;53.142;17.962;2023-04-24T03:48:35;99928.43;;;13.66;70.32
77019;BME280;66044;53.142;17.962;2023-04-24T03:51:02;99925.54;;;13.64;70.22
77019;BME280;66044;53.142;17.962;2023-04-24T03:53:28;99929.83;;;13.61;70.21
77019;BME280;66044;53.142;17.962;2023-04-24T03:55:55;99932.80;;;13.58;70.54
77019;BME280;66044;53.142;17.962;2023-04-24T03:58:21;99925.91;;;13.56;70.32
77019;BME280;66044;53.142;17.962;2023-04-24T04:00:48;99921.67;;;13.57;70.62
77019;BME280;66044;53.142;17.962;2023-04-24T04:03:15;99917.80;;;13.61;70.46
77019;BME280;66044;53.142;17.962;2023-04-24T04:05:42;99913.51;;;13.63;70.34
77019;BME280;66044;53.142;17.962;2023-04-24T04:08:08;99904.98;;;13.64;70.64
77019;BME280;66044;53.142;17.962;2023-04-24T04:10:35;99901.13;;;13.71;70.47
77019;BME280;66044;53.142;17.962;2023-04-24T04:13:01;99894.02;;;13.76;70.54
77019;BME280;66044;53.142;17.962;2023-04-24T04:15:28;99900.42;;;13.81;70.41
77019;BME280;66044;53.142;17.962;2023-04-24T04:17:54;99900.02;;;13.86;70.47
77019;BME280;66044;53.142;17.962;2023-04-24T04:20:21;99903.16;;;13.89;70.63
77019;BME280;66044;53.142;17.962;2023-04-24T04:22:47;99901.88;;;13.93;70.44
77019;BME280;66044;53.142;17.962;2023-04-24T04:25:13;99895.23;;;13.97;70.56
77019;BME280;66044;53.142;17.962;2023-04-24T04:27:40;99895.20;;;14.01;70.48
77019;BME280;66044;53.142;17.962;2023-04-24T04:30:08;99895.62;;;14.04;70.51
77019;BME280;66044;53.142;17.962;2023-04-24T04:32:35;99890.46;;;14.06;70.38
77019;BME280;66044;53.142;17.962;2023-04-24T04:35:02;99885.29;;;14.06;70.49
77019;BME280;66044;53.142;17.962;2023-04-24T04:37:32;99890.71;;;14.07;70.58
77019;BME280;66044;53.142;17.962;2023-04-24T04:39:59;99894.38;;;14.10;70.58
77019;BME280;66044;53.142;17.962;2023-04-24T04:42:26;99897.73;;;14.13;70.54
77019;BME280;66044;53.142;17.962;2023-04-24T04:44:53;99900.44;;;14.15;70.68
77019;BME280;66044;53.142;17.962;2023-04-24T04:47:21;99897.77;;;14.16;70.56
77019;BME280;66044;53.142;17.962;2023-04-24T04:49:50;99897.74;;;14.21;70.55
77019;BME280;66044;53.142;17.962;2023-04-24T04:52:18;99893.23;;;14.24;70.58
77019;BME280;66044;53.142;17.962;2023-04-24T04:54:45;99889.95;;;14.27;70.34
77019;BME280;66044;53.142;17.962;2023-04-24T04:57:12;99886.35;;;14.30;70.28
77019;BME280;66044;53.142;17.962;2023-04-24T04:59:39;99877.97;;;14.33;70.04
77019;BME280;66044;53.142;17.962;2023-04-24T05:02:07;99878.54;;;14.36;70.03
77019;BME280;66044;53.142;17.962;2023-04-24T05:04:33;99876.77;;;14.43;69.75
77019;BME280;66044;53.142;17.962;2023-04-24T05:07:00;99877.51;;;14.52;69.67
77019;BME280;66044;53.142;17.962;2023-04-24T05:09:26;99872.02;;;14.62;69.44
77019;BME280;66044;53.142;17.962;2023-04-24T05:11:55;99870.64;;;14.69;69.36
77019;BME280;66044;53.142;17.962;2023-04-24T05:14:22;99866.79;;;14.71;69.43
77019;BME280;66044;53.142;17.962;2023-04-24T05:16:48;99869.43;;;14.72;69.48
77019;BME280;66044;53.142;17.962;2023-04-24T05:19:15;99871.95;;;14.79;69.48
77019;BME280;66044;53.142;17.962;2023-04-24T05:21:41;99872.41;;;14.88;69.47
77019;BME280;66044;53.142;17.962;2023-04-24T05:24:08;99869.23;;;14.94;69.40
77019;BME280;66044;53.142;17.962;2023-04-24T05:26:34;99870.59;;;15.01;69.39
77019;BME280;66044;53.142;17.962;2023-04-24T05:29:02;99866.88;;;15.10;69.48
77019;BME280;66044;53.142;17.962;2023-04-24T05:31:29;99867.33;;;15.30;69.44
77019;BME280;66044;53.142;17.962;2023-04-24T05:33:55;99870.48;;;15.65;68.52
77019;BME280;66044;53.142;17.962;2023-04-24T05:36:21;99874.23;;;16.33;67.59
77019;BME280;66044;53.142;17.962;2023-04-24T05:38:48;99879.74;;;18.51;64.02
77019;BME280;66044;53.142;17.962;2023-04-24T05:41:14;99884.85;;;20.63;59.86
77019;BME280;66044;53.142;17.962;2023-04-24T05:43:41;99887.04;;;21.34;57.09
77019;BME280;66044;53.142;17.962;2023-04-24T05:46:07;99884.67;;;20.51;56.25
77019;BME280;66044;53.142;17.962;2023-04-24T05:48:34;99888.96;;;19.68;56.21
77019;BME280;66044;53.142;17.962;2023-04-24T05:51:00;99881.58;;;18.90;57.37
77019;BME280;66044;53.142;17.962;2023-04-24T05:53:27;99875.34;;;18.44;58.44
77019;BME280;66044;53.142;17.962;2023-04-24T05:55:53;99875.48;;;18.17;58.88
77019;BME280;66044;53.142;17.962;2023-04-24T05:58:20;99869.64;;;17.87;59.31
77019;BME280;66044;53.142;17.962;2023-04-24T06:00:46;99872.35;;;17.59;59.90
77019;BME280;66044;53.142;17.962;2023-04-24T06:03:13;99875.11;;;17.37;60.25
77019;BME280;66044;53.142;17.962;2023-04-24T06:05:39;99878.16;;;17.09;60.49
77019;BME280;66044;53.142;17.962;2023-04-24T06:08:06;99876.45;;;16.76;61.07
77019;BME280;66044;53.142;17.962;2023-04-24T06:10:33;99879.04;;;16.58;61.69
77019;BME280;66044;53.142;17.962;2023-04-24T06:12:59;99877.22;;;16.41;62.17
77019;BME280;66044;53.142;17.962;2023-04-24T06:15:29;99870.61;;;16.30;62.62
77019;BME280;66044;53.142;17.962;2023-04-24T06:17:59;99865.40;;;16.24;62.89
77019;BME280;66044;53.142;17.962;2023-04-24T06:20:25;99861.63;;;16.29;63.07
77019;BME280;66044;53.142;17.962;2023-04-24T06:22:52;99862.75;;;16.51;63.09
77019;BME280;66044;53.142;17.962;2023-04-24T06:25:18;99856.94;;;17.35;61.69
77019;BME280;66044;53.142;17.962;2023-04-24T06:27:45;99854.46;;;18.59;59.93
77019;BME280;66044;53.142;17.962;2023-04-24T06:30:12;99856.73;;;20.35;57.42
77019;BME280;66044;53.142;17.962;2023-04-24T06:32:39;99864.94;;;21.43;54.43
77019;BME280;66044;53.142;17.962;2023-04-24T06:35:06;99863.30;;;21.01;54.02
77019;BME280;66044;53.142;17.962;2023-04-24T06:37:34;99857.33;;;20.50;54.25
77019;BME280;66044;53.142;17.962;2023-04-24T06:40:00;99854.80;;;19.94;54.53
77019;BME280;66044;53.142;17.962;2023-04-24T06:42:27;99850.14;;;19.36;54.76
77019;BME280;66044;53.142;17.962;2023-04-24T06:44:53;99845.44;;;18.78;55.42
77019;BME280;66044;53.142;17.962;2023-04-24T06:47:20;99840.45;;;18.33;56.05
77019;BME280;66044;53.142;17.962;2023-04-24T06:49:46;99845.95;;;17.89;56.83
77019;BME280;66044;53.142;17.962;2023-04-24T06:52:13;99841.71;;;17.56;57.46
77019;BME280;66044;53.142;17.962;2023-04-24T06:54:41;99841.13;;;17.40;58.01
77019;BME280;66044;53.142;17.962;2023-04-24T06:57:08;99840.76;;;17.28;58.41
77019;BME280;66044;53.142;17.962;2023-04-24T06:59:35;99842.63;;;17.23;58.64
77019;BME280;66044;53.142;17.962;2023-04-24T07:02:01;99841.38;;;17.24;58.61
77019;BME280;66044;53.142;17.962;2023-04-24T07:04:29;99839.14;;;17.26;58.34
77019;BME280;66044;53.142;17.962;2023-04-24T07:06:56;99838.97;;;17.33;58.05
77019;BME280;66044;53.142;17.962;2023-04-24T07:09:25;99837.33;;;17.36;58.12
77019;BME280;66044;53.142;17.962;2023-04-24T07:11:52;99840.27;;;17.43;57.76
77019;BME280;66044;53.142;17.962;2023-04-24T07:14:20;99840.17;;;17.47;57.52
77019;BME280;66044;53.142;17.962;2023-04-24T07:16:46;99842.64;;;17.53;57.74
77019;BME280;66044;53.142;17.962;2023-04-24T07:19:13;99840.92;;;17.62;57.43
77019;BME280;66044;53.142;17.962;2023-04-24T07:21:40;99836.52;;;17.65;57.10
77019;BME280;66044;53.142;17.962;2023-04-24T07:24:06;99834.48;;;17.66;56.87
77019;BME280;66044;53.142;17.962;2023-04-24T07:26:37;99831.00;;;17.65;56.49
77019;BME280;66044;53.142;17.962;2023-04-24T07:29:04;99833.00;;;17.62;56.36
77019;BME280;66044;53.142;17.962;2023-04-24T07:31:30;99830.36;;;17.61;56.39
77019;BME280;66044;53.142;17.962;2023-04-24T07:33:57;99831.38;;;17.62;55.98
77019;BME280;66044;53.142;17.962;2023-04-24T07:36:24;99832.84;;;17.61;55.57
77019;BME280;66044;53.142;17.962;2023-04-24T07:38:52;99833.77;;;17.61;55.38
77019;BME280;66044;53.142;17.962;2023-04-24T07:41:19;99827.56;;;17.67;55.19
77019;BME280;66044;53.142;17.962;2023-04-24T07:43:46;99822.92;;;17.79;54.85
77019;BME280;66044;53.142;17.962;2023-04-24T07:46:13;99823.00;;;18.00;54.62
77019;BME280;66044;53.142;17.962;2023-04-24T07:48:39;99826.64;;;18.16;54.19
77019;BME280;66044;53.142;17.962;2023-04-24T07:51:06;99825.87;;;18.28;54.01
77019;BME280;66044;53.142;17.962;2023-04-24T07:53:32;99824.51;;;18.36;53.96
77019;BME280;66044;53.142;17.962;2023-04-24T07:55:59;99825.54;;;18.43;53.47
77019;BME280;66044;53.142;17.962;2023-04-24T07:58:25;99823.69;;;18.41;53.24
77019;BME280;66044;53.142;17.962;2023-04-24T08:00:52;99825.63;;;18.41;53.10
77019;BME280;66044;53.142;17.962;2023-04-24T08:03:18;99824.83;;;18.44;52.94
77019;BME280;66044;53.142;17.962;2023-04-24T08:05:46;99826.30;;;18.48;52.86
77019;BME280;66044;53.142;17.962;2023-04-24T08:08:12;99828.04;;;18.52;52.74
77019;BME280;66044;53.142;17.962;2023-04-24T08:10:39;99823.20;;;18.60;52.19
77019;BME280;66044;53.142;17.962;2023-04-24T08:13:05;99819.66;;;18.66;51.76
77019;BME280;66044;53.142;17.962;2023-04-24T08:15:32;99826.98;;;18.81;51.25
77019;BME280;66044;53.142;17.962;2023-04-24T08:17:58;99827.01;;;19.06;50.71
77019;BME280;66044;53.142;17.962;2023-04-24T08:20:25;99825.81;;;19.40;50.12
77019;BME280;66044;53.142;17.962;2023-04-24T08:22:51;99829.50;;;19.67;49.60
77019;BME280;66044;53.142;17.962;2023-04-24T08:25:18;99829.89;;;20.05;48.69
77019;BME280;66044;53.142;17.962;2023-04-24T08:27:45;99825.83;;;20.27;47.97
77019;BME280;66044;53.142;17.962;2023-04-24T08:30:12;99819.68;;;20.34;47.94
77019;BME280;66044;53.142;17.962;2023-04-24T08:32:38;99816.86;;;20.35;47.22
77019;BME280;66044;53.142;17.962;2023-04-24T08:35:05;99816.79;;;20.22;47.07
77019;BME280;66044;53.142;17.962;2023-04-24T08:37:32;99816.80;;;20.15;47.32
77019;BME280;66044;53.142;17.962;2023-04-24T08:39:59;99813.57;;;20.14;47.57
77019;BME280;66044;53.142;17.962;2023-04-24T08:42:28;99810.66;;;20.09;47.41
77019;BME280;66044;53.142;17.962;2023-04-24T08:44:54;99809.50;;;20.02;47.49
77019;BME280;66044;53.142;17.962;2023-04-24T08:47:22;99806.05;;;19.94;47.36
77019;BME280;66044;53.142;17.962;2023-04-24T08:49:49;99810.47;;;19.89;47.49
77019;BME280;66044;53.142;17.962;2023-04-24T08:52:18;99810.11;;;19.86;47.70
77019;BME280;66044;53.142;17.962;2023-04-24T08:54:46;99809.97;;;19.79;47.60
77019;BME280;66044;53.142;17.962;2023-04-24T08:57:14;99808.13;;;19.70;47.56
77019;BME280;66044;53.142;17.962;2023-04-24T08:59:41;99811.02;;;19.63;47.70
77019;BME280;66044;53.142;17.962;2023-04-24T09:02:10;99811.27;;;19.56;47.36
77019;BME280;66044;53.142;17.962;2023-04-24T09:04:37;99812.29;;;19.45;47.46
77019;BME280;66044;53.142;17.962;2023-04-24T09:07:06;99814.10;;;19.36;47.56
77019;BME280;66044;53.142;17.962;2023-04-24T09:09:32;99812.23;;;19.28;47.76
77019;BME280;66044;53.142;17.962;2023-04-24T09:11:59;99816.10;;;19.22;47.74
77019;BME280;66044;53.142;17.962;2023-04-24T09:14:27;99815.80;;;19.08;47.63
77019;BME280;66044;53.142;17.962;2023-04-24T09:16:54;99818.98;;;18.92;47.89
77019;BME280;66044;53.142;17.962;2023-04-24T09:19:20;99819.69;;;18.81;48.05
77019;BME280;66044;53.142;17.962;2023-04-24T09:21:48;99822.55;;;18.72;48.42
77019;BME280;66044;53.142;17.962;2023-04-24T09:24:19;99820.69;;;18.63;48.63
77019;BME280;66044;53.142;17.962;2023-04-24T09:26:49;99816.52;;;18.60;48.85
77019;BME280;66044;53.142;17.962;2023-04-24T09:29:23;99812.77;;;18.60;49.26
77019;BME280;66044;53.142;17.962;2023-04-24T09:31:49;99813.41;;;18.59;49.31
77019;BME280;66044;53.142;17.962;2023-04-24T09:34:22;99816.39;;;18.56;49.62
77019;BME280;66044;53.142;17.962;2023-04-24T09:36:49;99814.02;;;18.60;49.84
77019;BME280;66044;53.142;17.962;2023-04-24T09:39:17;99812.25;;;18.68;49.83
77019;BME280;66044;53.142;17.962;2023-04-24T09:41:54;99808.23;;;18.75;49.70
77019;BME280;66044;53.142;17.962;2023-04-24T09:44:25;99806.59;;;18.84;49.70
77019;BME280;66044;53.142;17.962;2023-04-24T09:46:59;99803.39;;;18.94;49.34
77019;BME280;66044;53.142;17.962;2023-04-24T09:49:27;99802.09;;;19.02;49.05
77019;BME280;66044;53.142;17.962;2023-04-24T09:52:05;99798.73;;;19.11;48.85
77019;BME280;66044;53.142;17.962;2023-04-24T09:54:32;99798.96;;;19.32;48.42
77019;BME280;66044;53.142;17.962;2023-04-24T09:56:59;99797.73;;;19.54;48.21
77019;BME280;66044;53.142;17.962;2023-04-24T09:59:29;99804.14;;;19.78;47.99
77019;BME280;66044;53.142;17.962;2023-04-24T10:01:56;99800.77;;;19.97;47.57
77019;BME280;66044;53.142;17.962;2023-04-24T10:04:27;99795.16;;;20.14;47.38
77019;BME280;66044;53.142;17.962;2023-04-24T10:06:56;99793.44;;;20.21;46.89
77019;BME280;66044;53.142;17.962;2023-04-24T10:09:25;99789.08;;;20.25;46.61
77019;BME280;66044;53.142;17.962;2023-04-24T10:11:53;99783.62;;;20.26;46.41
77019;BME280;66044;53.142;17.962;2023-04-24T10:14:22;99783.95;;;20.24;46.36
77019;BME280;66044;53.142;17.962;2023-04-24T10:16:50;99783.05;;;20.27;46.51
77019;BME280;66044;53.142;17.962;2023-04-24T10:19:17;99780.13;;;20.36;46.26
77019;BME280;66044;53.142;17.962;2023-04-24T10:21:46;99770.59;;;20.44;46.28
77019;BME280;66044;53.142;17.962;2023-04-24T10:24:14;99766.95;;;20.52;46.11
77019;BME280;66044;53.142;17.962;2023-04-24T10:26:42;99778.98;;;20.55;45.98
77019;BME280;66044;53.142;17.962;2023-04-24T10:29:11;99780.55;;;20.59;46.07
77019;BME280;66044;53.142;17.962;2023-04-24T10:31:39;99777.29;;;20.73;46.11
77019;BME280;66044;53.142;17.962;2023-04-24T10:34:06;99779.73;;;20.89;45.85
77019;BME280;66044;53.142;17.962;2023-04-24T10:36:35;99782.90;;;20.95;45.35
77019;BME280;66044;53.142;17.962;2023-04-24T10:39:06;99784.14;;;20.96;44.84
77019;BME280;66044;53.142;17.962;2023-04-24T10:41:36;99779.55;;;20.95;44.85
77019;BME280;66044;53.142;17.962;2023-04-24T10:44:14;99777.34;;;21.01;44.91
77019;BME280;66044;53.142;17.962;2023-04-24T10:46:45;99782.94;;;21.10;44.96
77019;BME280;66044;53.142;17.962;2023-04-24T10:49:13;99783.88;;;21.20;44.95
77019;BME280;66044;53.142;17.962;2023-04-24T10:52:03;99780.91;;;21.32;44.79
77019;BME280;66044;53.142;17.962;2023-04-24T10:54:40;99785.19;;;21.41;44.77
77019;BME280;66044;53.142;17.962;2023-04-24T10:57:26;99783.67;;;21.47;44.27
77019;BME280;66044;53.142;17.962;2023-04-24T11:00:14;99783.52;;;21.43;44.45
77019;BME280;66044;53.142;17.962;2023-04-24T11:02:42;99784.91;;;21.47;44.14
77019;BME280;66044;53.142;17.962;2023-04-24T11:05:17;99786.20;;;21.49;44.44
77019;BME280;66044;53.142;17.962;2023-04-24T11:10:38;99781.30;;;21.93;44.46
77019;BME280;66044;53.142;17.962;2023-04-24T11:13:05;99779.77;;;22.17;44.41
77019;BME280;66044;53.142;17.962;2023-04-24T11:15:31;99779.20;;;22.28;43.79
77019;BME280;66044;53.142;17.962;2023-04-24T11:17:58;99778.17;;;22.25;43.62
77019;BME280;66044;53.142;17.962;2023-04-24T11:20:25;99777.68;;;22.23;43.61
77019;BME280;66044;53.142;17.962;2023-04-24T11:22:53;99779.46;;;22.20;43.75
77019;BME280;66044;53.142;17.962;2023-04-24T11:25:23;99780.77;;;22.21;43.87
77019;BME280;66044;53.142;17.962;2023-04-24T11:28:03;99782.48;;;22.22;44.08
77019;BME280;66044;53.142;17.962;2023-04-24T11:30:30;99789.08;;;22.20;43.98
77019;BME280;66044;53.142;17.962;2023-04-24T11:33:02;99792.36;;;22.02;44.31
77019;BME280;66044;53.142;17.962;2023-04-24T11:35:29;99791.52;;;21.76;44.80
77019;BME280;66044;53.142;17.962;2023-04-24T11:37:59;99790.52;;;21.51;45.31
77019;BME280;66044;53.142;17.962;2023-04-24T11:40:29;99796.73;;;21.34;44.50
77019;BME280;66044;53.142;17.962;2023-04-24T11:42:55;99796.30;;;21.28;43.92
77019;BME280;66044;53.142;17.962;2023-04-24T11:45:26;99792.84;;;21.25;43.49
77019;BME280;66044;53.142;17.962;2023-04-24T11:47:55;99792.85;;;21.24;43.65
77019;BME280;66044;53.142;17.962;2023-04-24T11:50:23;99792.27;;;21.34;43.53
77019;BME280;66044;53.142;17.962;2023-04-24T11:52:50;99791.79;;;21.39;43.42
77019;BME280;66044;53.142;17.962;2023-04-24T11:57:44;99789.17;;;21.48;43.46
77019;BME280;66044;53.142;17.962;2023-04-24T12:00:19;99787.49;;;21.55;43.47
77019;BME280;66044;53.142;17.962;2023-04-24T12:02:46;99784.77;;;21.61;43.16
77019;BME280;66044;53.142;17.962;2023-04-24T12:05:25;99782.23;;;21.48;42.85
77019;BME280;66044;53.142;17.962;2023-04-24T12:07:52;99781.53;;;21.28;43.10
77019;BME280;66044;53.142;17.962;2023-04-24T12:10:24;99771.26;;;21.19;43.63
77019;BME280;66044;53.142;17.962;2023-04-24T12:12:51;99777.25;;;21.14;44.13
77019;BME280;66044;53.142;17.962;2023-04-24T12:15:20;99776.94;;;21.09;44.37
77019;BME280;66044;53.142;17.962;2023-04-24T12:17:47;99778.75;;;21.13;45.04
77019;BME280;66044;53.142;17.962;2023-04-24T12:20:14;99772.05;;;21.18;44.49
77019;BME280;66044;53.142;17.962;2023-04-24T12:22:51;99775.10;;;21.12;44.34
77019;BME280;66044;53.142;17.962;2023-04-24T12:25:24;99780.76;;;21.02;44.69
77019;BME280;66044;53.142;17.962;2023-04-24T12:28:08;99783.35;;;21.05;45.13
77019;BME280;66044;53.142;17.962;2023-04-24T12:30:43;99779.91;;;21.14;45.41
77019;BME280;66044;53.142;17.962;2023-04-24T12:33:12;99773.35;;;21.27;45.49
77019;BME280;66044;53.142;17.962;2023-04-24T12:35:40;99767.05;;;21.38;45.16
77019;BME280;66044;53.142;17.962;2023-04-24T12:38:16;99766.67;;;21.42;45.25
77019;BME280;66044;53.142;17.962;2023-04-24T12:40:48;99764.80;;;21.45;45.32
77019;BME280;66044;53.142;17.962;2023-04-24T12:43:27;99765.12;;;21.41;45.19
77019;BME280;66044;53.142;17.962;2023-04-24T12:45:53;99764.86;;;21.34;45.49
77019;BME280;66044;53.142;17.962;2023-04-24T12:48:19;99763.35;;;21.28;45.87
77019;BME280;66044;53.142;17.962;2023-04-24T12:50:47;99762.23;;;21.30;46.02
77019;BME280;66044;53.142;17.962;2023-04-24T12:53:14;99764.18;;;21.37;46.19
77019;BME280;66044;53.142;17.962;2023-04-24T12:55:41;99759.80;;;21.49;46.19
77019;BME280;66044;53.142;17.962;2023-04-24T12:58:07;99753.45;;;21.66;46.19